Time;durP1;ratioP1;P1;durP2;ratioP2;P2;SDS_P1;SDS_P2;PMS_P1;PMS_P2;Temp;Humidity;BMP_temperature;BMP_pressure;BME280_temperature;BME280_humidity;BME280_pressure;Samples;Min_cycle;Max_cycle;Signal;HPM_P1;HPM_P2
2021/12/10 00:00:33;;;;;;;2.73;1.50;;;;;;;;;;5054289;28;20032;-48
2021/12/10 00:03:00;;;;;;;2.83;1.80;;;;;;;;;;5054418;28;20025;-49
2021/12/10 00:05:28;;;;;;;2.50;1.83;;;;;;;;;;5073847;28;20025;-48
2021/12/10 00:07:55;;;;;;;7.77;1.80;;;;;;;;;;5073468;28;20454;-50
2021/12/10 00:10:22;;;;;;;4.83;1.90;;;;;;;;;;5074078;28;20035;-48
2021/12/10 00:12:51;;;;;;;2.70;1.53;;;;;;;;;;5073966;28;20025;-49
2021/12/10 00:15:18;;;;;;;3.50;1.10;;;;;;;;;;5073854;28;20541;-49
2021/12/10 00:17:44;;;;;;;4.87;1.67;;;;;;;;;;5073381;28;20107;-48
2021/12/10 00:20:11;;;;;;;2.53;1.37;;;;;;;;;;5073206;28;20370;-50
2021/12/10 00:22:50;;;;;;;6.23;1.03;;;;;;;;;;5072459;28;20028;-50
2021/12/10 00:25:18;;;;;;;3.87;1.67;;;;;;;;;;5053756;28;20359;-51
2021/12/10 00:27:45;;;;;;;10.00;2.00;;;;;;;;;;5053316;28;20378;-50
2021/12/10 00:30:17;;;;;;;7.20;1.87;;;;;;;;;;5053529;28;20427;-49
2021/12/10 00:32:49;;;;;;;7.20;1.90;;;;;;;;;;5053368;28;20029;-50
2021/12/10 00:35:20;;;;;;;10.93;2.53;;;;;;;;;;5053711;28;20045;-49
2021/12/10 00:37:46;;;;;;;4.37;1.40;;;;;;;;;;5053180;28;20075;-50
2021/12/10 00:40:14;;;;;;;3.27;1.60;;;;;;;;;;5052965;28;20025;-49
2021/12/10 00:42:40;;;;;;;3.97;3.07;;;;;;;;;;5053199;28;20035;-53
2021/12/10 00:45:07;;;;;;;4.40;1.37;;;;;;;;;;5053526;28;20025;-48
2021/12/10 00:47:33;;;;;;;4.07;1.27;;;;;;;;;;5053351;28;20370;-50
2021/12/10 00:49:59;;;;;;;3.67;1.60;;;;;;;;;;5052718;28;20036;-51
2021/12/10 00:52:25;;;;;;;2.83;1.70;;;;;;;;;;5053272;28;20425;-53
2021/12/10 00:54:52;;;;;;;4.27;1.30;;;;;;;;;;5052948;28;20462;-52
2021/12/10 00:57:18;;;;;;;3.67;1.53;;;;;;;;;;5052872;28;20467;-51
2021/12/10 00:59:45;;;;;;;5.77;1.43;;;;;;;;;;5052020;28;20115;-49
2021/12/10 01:02:12;;;;;;;3.43;1.47;;;;;;;;;;5053210;28;20021;-51
2021/12/10 01:04:40;;;;;;;3.43;1.03;;;;;;;;;;5066749;28;20471;-53
2021/12/10 01:07:08;;;;;;;1.47;1.03;;;;;;;;;;5072829;28;20079;-47
2021/12/10 01:09:35;;;;;;;5.23;1.83;;;;;;;;;;5072472;28;20028;-50
2021/12/10 01:12:04;;;;;;;4.37;2.00;;;;;;;;;;5072770;28;20504;-52
2021/12/10 01:14:41;;;;;;;2.13;1.00;;;;;;;;;;5072239;28;20033;-51
2021/12/10 01:26:08;;;;;;;1.00;0.87;;;;;;;;;;5052669;28;20047;-54
2021/12/10 01:28:14;;;;;;;2.20;1.17;;;;;;;;;;5050442;28;20102;-50
2021/12/10 01:30:41;;;;;;;6.33;0.93;;;;;;;;;;5052407;28;20017;-55
2021/12/10 01:33:08;;;;;;;1.03;0.60;;;;;;;;;;5052169;28;20028;-51
2021/12/10 01:35:36;;;;;;;3.77;1.80;;;;;;;;;;5052462;28;20121;-51
2021/12/10 01:38:04;;;;;;;4.67;1.27;;;;;;;;;;5051733;28;20029;-53
2021/12/10 01:40:30;;;;;;;2.33;0.93;;;;;;;;;;5052353;28;20029;-52
2021/12/10 01:43:05;;;;;;;1.10;0.77;;;;;;;;;;5052368;28;20390;-49
2021/12/10 01:45:33;;;;;;;4.90;1.63;;;;;;;;;;5051819;28;20029;-49
2021/12/10 01:48:08;;;;;;;4.57;1.87;;;;;;;;;;5051631;28;20029;-50
2021/12/10 01:50:34;;;;;;;3.77;1.67;;;;;;;;;;5051362;28;20466;-51
2021/12/10 01:53:04;;;;;;;2.33;1.50;;;;;;;;;;5051999;28;20204;-51
2021/12/10 01:55:31;;;;;;;1.67;0.67;;;;;;;;;;5052093;28;20090;-54
2021/12/10 01:57:57;;;;;;;3.40;1.27;;;;;;;;;;5051154;28;20052;-49
2021/12/10 02:00:26;;;;;;;3.77;1.73;;;;;;;;;;5052014;28;20029;-54
2021/12/10 02:02:52;;;;;;;6.50;1.90;;;;;;;;;;5052555;28;20055;-51
2021/12/10 02:05:18;;;;;;;4.17;1.20;;;;;;;;;;5071625;28;20099;-54
2021/12/10 02:07:45;;;;;;;3.40;1.20;;;;;;;;;;5071773;28;20067;-53
2021/12/10 02:10:12;;;;;;;3.93;1.60;;;;;;;;;;5071892;28;20351;-50
2021/12/10 02:12:38;;;;;;;1.67;0.70;;;;;;;;;;5071920;28;20090;-52
2021/12/10 02:15:06;;;;;;;3.70;1.70;;;;;;;;;;5071530;28;20387;-50
2021/12/10 02:17:34;;;;;;;4.30;1.00;;;;;;;;;;5072012;28;20033;-54
2021/12/10 02:20:23;;;;;;;2.60;0.80;;;;;;;;;;5071308;28;20025;-51
2021/12/10 02:22:50;;;;;;;3.23;1.27;;;;;;;;;;5065714;28;20036;-53
2021/12/10 02:25:20;;;;;;;2.00;1.17;;;;;;;;;;5052065;28;20498;-52
2021/12/10 02:27:46;;;;;;;3.10;0.73;;;;;;;;;;5051338;28;20029;-55
2021/12/10 02:30:13;;;;;;;2.43;1.70;;;;;;;;;;5050386;28;20047;-53
2021/12/10 02:32:39;;;;;;;1.80;0.90;;;;;;;;;;5050657;28;20032;-51
2021/12/10 02:35:07;;;;;;;4.73;2.27;;;;;;;;;;5051602;28;20130;-53
2021/12/10 02:37:34;;;;;;;2.67;0.90;;;;;;;;;;5051473;28;20506;-51
2021/12/10 02:40:00;;;;;;;2.30;1.17;;;;;;;;;;5051194;28;20028;-51
2021/12/10 02:42:26;;;;;;;3.17;1.87;;;;;;;;;;5051770;28;20031;-51
2021/12/10 02:44:52;;;;;;;6.03;2.20;;;;;;;;;;5051431;28;20106;-48
2021/12/10 02:47:20;;;;;;;3.43;1.33;;;;;;;;;;5051544;28;20125;-48
2021/12/10 02:49:46;;;;;;;2.03;1.20;;;;;;;;;;5050900;28;20029;-50
2021/12/10 02:52:13;;;;;;;4.50;1.50;;;;;;;;;;5051346;28;20463;-49
2021/12/10 02:54:42;;;;;;;2.47;1.53;;;;;;;;;;5051575;28;20112;-48
2021/12/10 02:57:11;;;;;;;3.17;1.47;;;;;;;;;;5051481;28;20498;-50
2021/12/10 02:59:37;;;;;;;3.10;1.20;;;;;;;;;;5051056;28;20433;-49
2021/12/10 03:02:05;;;;;;;4.93;1.43;;;;;;;;;;5052545;28;20106;-51
2021/12/10 03:04:32;;;;;;;3.23;1.47;;;;;;;;;;5068217;28;20027;-48
2021/12/10 03:07:00;;;;;;;2.87;1.20;;;;;;;;;;5075338;28;20416;-48
2021/12/10 03:09:27;;;;;;;2.00;1.20;;;;;;;;;;5074596;28;20047;-49
2021/12/10 03:11:56;;;;;;;1.70;1.00;;;;;;;;;;5075133;28;20029;-48
2021/12/10 03:14:24;;;;;;;1.60;0.90;;;;;;;;;;5075050;28;20025;-49
2021/12/10 03:16:51;;;;;;;2.60;1.37;;;;;;;;;;5074776;28;20029;-50
2021/12/10 03:19:18;;;;;;;5.30;1.40;;;;;;;;;;5074026;28;20111;-50
2021/12/10 03:21:45;;;;;;;1.80;1.17;;;;;;;;;;5074875;28;20028;-51
2021/12/10 03:24:12;;;;;;;5.40;1.40;;;;;;;;;;5060528;28;20039;-54
2021/12/10 03:26:38;;;;;;;4.20;1.60;;;;;;;;;;5054847;28;20029;-49
2021/12/10 03:29:04;;;;;;;1.70;1.03;;;;;;;;;;5053979;28;20044;-49
2021/12/10 03:31:30;;;;;;;1.70;0.97;;;;;;;;;;5054497;28;20116;-51
2021/12/10 03:33:56;;;;;;;1.83;1.20;;;;;;;;;;5054414;28;20079;-48
2021/12/10 03:36:23;;;;;;;2.23;0.77;;;;;;;;;;5054376;28;20478;-48
2021/12/10 03:38:49;;;;;;;3.70;0.80;;;;;;;;;;5054313;28;20578;-49
2021/12/10 03:41:15;;;;;;;2.47;1.37;;;;;;;;;;5054643;28;20025;-48
2021/12/10 03:43:41;;;;;;;3.47;1.80;;;;;;;;;;5054916;28;20382;-47
2021/12/10 03:46:08;;;;;;;4.97;1.40;;;;;;;;;;5054067;28;20052;-51
2021/12/10 03:48:36;;;;;;;2.77;1.50;;;;;;;;;;5053500;28;20101;-48
2021/12/10 03:51:03;;;;;;;1.90;0.97;;;;;;;;;;5054547;28;20029;-49
2021/12/10 03:53:29;;;;;;;2.43;1.23;;;;;;;;;;5054303;28;20112;-49
2021/12/10 03:56:00;;;;;;;1.93;1.60;;;;;;;;;;5054245;28;20494;-48
2021/12/10 03:58:26;;;;;;;2.60;1.47;;;;;;;;;;5053589;28;20386;-48
2021/12/10 04:00:53;;;;;;;1.70;1.00;;;;;;;;;;5053917;28;20029;-49
2021/12/10 04:03:20;;;;;;;2.13;1.50;;;;;;;;;;5057110;28;20024;-48
2021/12/10 04:05:46;;;;;;;2.77;1.87;;;;;;;;;;5074104;28;20027;-48
2021/12/10 04:08:12;;;;;;;3.57;1.77;;;;;;;;;;5073468;28;20021;-48
2021/12/10 04:10:39;;;;;;;3.40;2.20;;;;;;;;;;5074152;28;20387;-50
2021/12/10 04:13:05;;;;;;;2.30;2.00;;;;;;;;;;5073308;28;20021;-53
2021/12/10 04:15:35;;;;;;;4.17;1.50;;;;;;;;;;5073562;28;20032;-48
2021/12/10 04:18:02;;;;;;;3.08;1.77;;;;;;;;;;5073208;28;20455;-48
2021/12/10 04:20:28;;;;;;;5.10;1.60;;;;;;;;;;5074013;28;20187;-49
2021/12/10 04:22:55;;;;;;;2.70;2.10;;;;;;;;;;5069832;28;20017;-49
2021/12/10 04:25:24;;;;;;;4.13;2.00;;;;;;;;;;5053748;28;20083;-48
2021/12/10 04:27:50;;;;;;;2.80;2.23;;;;;;;;;;5052683;28;20029;-49
2021/12/10 04:30:17;;;;;;;6.83;3.23;;;;;;;;;;5051729;28;20021;-48
2021/12/10 04:32:43;;;;;;;4.17;3.13;;;;;;;;;;5045921;28;20033;-52
2021/12/10 04:35:10;;;;;;;3.73;3.17;;;;;;;;;;5050807;28;20040;-50
2021/12/10 04:37:36;;;;;;;5.17;3.30;;;;;;;;;;5049572;28;20040;-48
2021/12/10 04:40:05;;;;;;;11.70;4.30;;;;;;;;;;5046167;28;20152;-49
2021/12/10 04:42:31;;;;;;;5.60;2.63;;;;;;;;;;5042636;28;20108;-50
2021/12/10 04:44:58;;;;;;;3.50;2.63;;;;;;;;;;5051805;28;20137;-51
2021/12/10 04:47:25;;;;;;;7.50;3.47;;;;;;;;;;5042408;28;20033;-50
2021/12/10 04:49:51;;;;;;;4.30;2.63;;;;;;;;;;5038472;28;20032;-49
2021/12/10 04:52:17;;;;;;;5.00;3.30;;;;;;;;;;5041300;28;20471;-52
2021/12/10 04:54:44;;;;;;;4.50;2.50;;;;;;;;;;5037125;28;20040;-53
2021/12/10 04:57:10;;;;;;;5.93;3.50;;;;;;;;;;5050025;28;20033;-49
2021/12/10 04:59:36;;;;;;;3.73;2.83;;;;;;;;;;5033245;28;20061;-51
2021/12/10 05:02:04;;;;;;;4.20;2.50;;;;;;;;;;5040032;28;20048;-50
2021/12/10 05:04:30;;;;;;;4.80;2.93;;;;;;;;;;5047742;28;20071;-48
2021/12/10 05:06:58;;;;;;;5.10;3.40;;;;;;;;;;5049054;28;20024;-54
2021/12/10 05:09:24;;;;;;;7.77;3.37;;;;;;;;;;5043436;28;20025;-51
2021/12/10 05:11:50;;;;;;;4.53;3.23;;;;;;;;;;5036476;28;20071;-50
2021/12/10 05:14:17;;;;;;;7.60;2.50;;;;;;;;;;5037158;28;20036;-49
2021/12/10 05:16:44;;;;;;;10.90;4.57;;;;;;;;;;5043375;28;20112;-51
2021/12/10 05:19:11;;;;;;;4.93;3.03;;;;;;;;;;5051544;28;20025;-48
2021/12/10 05:21:38;;;;;;;5.27;3.93;;;;;;;;;;5039996;28;20387;-49
2021/12/10 05:24:05;;;;;;;6.27;3.37;;;;;;;;;;5040688;28;20040;-50
2021/12/10 05:26:31;;;;;;;7.00;4.00;;;;;;;;;;5041404;28;20029;-52
2021/12/10 05:28:57;;;;;;;5.53;3.47;;;;;;;;;;5051572;28;20033;-48
2021/12/10 05:31:23;;;;;;;5.17;2.67;;;;;;;;;;5051230;28;20155;-51
2021/12/10 05:33:49;;;;;;;7.87;4.50;;;;;;;;;;5035522;28;20379;-51
2021/12/10 05:36:15;;;;;;;3.97;3.23;;;;;;;;;;5051015;28;20040;-50
2021/12/10 05:38:41;;;;;;;6.03;3.87;;;;;;;;;;5039717;28;20025;-53
2021/12/10 05:41:10;;;;;;;5.23;3.43;;;;;;;;;;5055545;28;20137;-50
2021/12/10 05:43:36;;;;;;;7.27;3.97;;;;;;;;;;5033909;28;20457;-50
2021/12/10 05:46:03;;;;;;;5.70;4.57;;;;;;;;;;5051875;28;20120;-53
2021/12/10 05:48:29;;;;;;;11.03;4.27;;;;;;;;;;5034625;28;20609;-53
2021/12/10 05:50:55;;;;;;;3.97;3.53;;;;;;;;;;5038549;28;20071;-54
2021/12/10 05:53:21;;;;;;;7.87;4.30;;;;;;;;;;5045221;28;20100;-53
2021/12/10 05:55:48;;;;;;;7.93;5.73;;;;;;;;;;5044264;28;20425;-53
2021/12/10 05:58:14;;;;;;;6.47;4.37;;;;;;;;;;5051082;28;20434;-53
2021/12/10 06:00:42;;;;;;;4.03;3.03;;;;;;;;;;5032029;28;20471;-51
2021/12/10 06:03:08;;;;;;;8.83;5.73;;;;;;;;;;5048245;28;20478;-53
2021/12/10 06:05:34;;;;;;;4.10;3.53;;;;;;;;;;5042393;28;20029;-52
2021/12/10 06:08:00;;;;;;;4.53;3.97;;;;;;;;;;5031714;28;20064;-52
2021/12/10 06:10:26;;;;;;;13.57;3.87;;;;;;;;;;5047583;28;20029;-53
2021/12/10 06:12:53;;;;;;;8.03;4.20;;;;;;;;;;5039257;28;20033;-50
2021/12/10 06:15:20;;;;;;;6.53;3.60;;;;;;;;;;5039786;28;20571;-53
2021/12/10 06:17:47;;;;;;;5.33;3.80;;;;;;;;;;5033660;28;20475;-50
2021/12/10 06:20:15;;;;;;;4.43;3.80;;;;;;;;;;5045099;28;20104;-53
2021/12/10 06:22:41;;;;;;;8.23;4.77;;;;;;;;;;5035594;28;20037;-51
2021/12/10 06:25:08;;;;;;;4.87;3.40;;;;;;;;;;5037559;28;20391;-50
2021/12/10 06:27:34;;;;;;;8.47;3.97;;;;;;;;;;5048949;28;20037;-50
2021/12/10 06:30:01;;;;;;;10.33;5.37;;;;;;;;;;5042431;28;20098;-54
2021/12/10 06:32:27;;;;;;;7.40;5.67;;;;;;;;;;5042815;28;20446;-54
2021/12/10 06:34:53;;;;;;;5.73;4.37;;;;;;;;;;5043243;28;20041;-53
2021/12/10 06:37:20;;;;;;;7.37;4.83;;;;;;;;;;5046201;28;20025;-49
2021/12/10 06:39:45;;;;;;;11.23;4.80;;;;;;;;;;5036043;28;20067;-51
2021/12/10 06:42:12;;;;;;;6.63;5.60;;;;;;;;;;5035805;28;20033;-53
2021/12/10 06:44:38;;;;;;;12.00;5.73;;;;;;;;;;5053060;28;20131;-50
2021/12/10 06:47:06;;;;;;;5.63;4.50;;;;;;;;;;5042589;28;20439;-50
2021/12/10 06:49:32;;;;;;;8.97;5.53;;;;;;;;;;5045259;28;20529;-49
2021/12/10 06:52:01;;;;;;;7.93;4.37;;;;;;;;;;5048813;28;20029;-48
2021/12/10 06:54:27;;;;;;;9.83;5.53;;;;;;;;;;5038033;28;20040;-52
2021/12/10 06:56:53;;;;;;;8.97;5.60;;;;;;;;;;5038929;28;20041;-51
2021/12/10 06:59:19;;;;;;;6.17;4.63;;;;;;;;;;5043135;28;20040;-50
2021/12/10 07:01:45;;;;;;;7.73;5.83;;;;;;;;;;5045715;28;20386;-51
2021/12/10 07:04:13;;;;;;;12.53;6.40;;;;;;;;;;5053625;28;20033;-50
2021/12/10 07:06:40;;;;;;;5.63;4.67;;;;;;;;;;5049993;28;20029;-49
2021/12/10 07:09:11;;;;;;;14.23;5.77;;;;;;;;;;5047831;28;20029;-51
2021/12/10 07:11:37;;;;;;;6.75;4.95;;;;;;;;;;5044002;28;20104;-51
2021/12/10 07:14:03;;;;;;;4.90;4.37;;;;;;;;;;5038362;28;20107;-51
2021/12/10 07:16:30;;;;;;;7.70;4.97;;;;;;;;;;5036424;28;20052;-53
2021/12/10 07:18:56;;;;;;;4.27;3.43;;;;;;;;;;5053754;28;20057;-51
2021/12/10 07:21:22;;;;;;;10.73;5.70;;;;;;;;;;5054818;28;20025;-54
2021/12/10 07:23:49;;;;;;;8.47;5.07;;;;;;;;;;5054776;28;20029;-50
2021/12/10 07:26:15;;;;;;;8.20;5.47;;;;;;;;;;5054011;28;20341;-53
2021/12/10 07:28:41;;;;;;;5.73;4.27;;;;;;;;;;5054197;28;20064;-51
2021/12/10 07:31:08;;;;;;;8.33;4.73;;;;;;;;;;5054882;28;20049;-52
2021/12/10 07:33:35;;;;;;;6.70;4.50;;;;;;;;;;5054274;28;20032;-52
2021/12/10 07:36:02;;;;;;;5.17;4.20;;;;;;;;;;5054347;28;20047;-51
2021/12/10 07:38:28;;;;;;;6.50;4.70;;;;;;;;;;5053766;28;20027;-51
2021/12/10 07:40:54;;;;;;;8.80;4.70;;;;;;;;;;5050053;28;20033;-54
2021/12/10 07:43:20;;;;;;;5.90;4.70;;;;;;;;;;5043188;28;20025;-51
2021/12/10 07:45:47;;;;;;;8.00;5.53;;;;;;;;;;5038337;28;20482;-52
2021/12/10 07:48:18;;;;;;;5.53;4.17;;;;;;;;;;5042686;28;20032;-53
2021/12/10 07:50:50;;;;;;;5.68;3.88;;;;;;;;;;5035566;28;20044;-48
2021/12/10 07:53:19;;;;;;;5.97;4.60;;;;;;;;;;5050217;28;20135;-49
2021/12/10 07:55:45;;;;;;;5.40;4.50;;;;;;;;;;5045931;28;20032;-48
2021/12/10 07:58:11;;;;;;;4.87;3.90;;;;;;;;;;5038733;28;20030;-51
2021/12/10 08:00:40;;;;;;;5.70;4.60;;;;;;;;;;5034511;28;20037;-51
2021/12/10 08:03:06;;;;;;;11.73;4.53;;;;;;;;;;5050187;28;20040;-53
2021/12/10 08:05:32;;;;;;;6.67;4.20;;;;;;;;;;5060078;28;20032;-51
2021/12/10 08:07:58;;;;;;;11.30;6.57;;;;;;;;;;5046661;28;20033;-50
2021/12/10 08:10:24;;;;;;;9.07;4.27;;;;;;;;;;5039917;28;20044;-50
2021/12/10 08:12:50;;;;;;;5.30;4.13;;;;;;;;;;5041909;28;20059;-51
2021/12/10 08:15:16;;;;;;;6.47;3.57;;;;;;;;;;5046585;28;20122;-53
2021/12/10 08:17:43;;;;;;;6.90;3.80;;;;;;;;;;5040540;28;20491;-52
2021/12/10 08:20:10;;;;;;;6.70;4.27;;;;;;;;;;5033243;28;20033;-52
2021/12/10 08:22:36;;;;;;;7.20;3.33;;;;;;;;;;5048287;28;20039;-52
2021/12/10 08:25:03;;;;;;;6.13;4.13;;;;;;;;;;5036966;28;20176;-50
2021/12/10 08:27:29;;;;;;;4.03;2.93;;;;;;;;;;5049954;28;20068;-48
2021/12/10 08:30:02;;;;;;;4.27;3.23;;;;;;;;;;5037083;28;20056;-49
2021/12/10 08:32:28;;;;;;;8.43;3.50;;;;;;;;;;5045379;28;20030;-48
2021/12/10 08:34:54;;;;;;;5.83;4.40;;;;;;;;;;5050771;28;20160;-52
2021/12/10 08:37:20;;;;;;;7.33;4.07;;;;;;;;;;5046766;28;20033;-50
2021/12/10 08:39:46;;;;;;;4.43;2.60;;;;;;;;;;5044109;28;20086;-54
2021/12/10 08:42:14;;;;;;;3.43;2.67;;;;;;;;;;5035614;28;20033;-52
2021/12/10 08:44:40;;;;;;;6.27;3.57;;;;;;;;;;5059917;28;20477;-48
2021/12/10 08:47:06;;;;;;;4.47;2.43;;;;;;;;;;5043708;28;20029;-52
2021/12/10 08:49:32;;;;;;;3.73;3.07;;;;;;;;;;5042996;28;20068;-53
2021/12/10 08:51:58;;;;;;;5.20;2.93;;;;;;;;;;5047814;28;20110;-52
2021/12/10 08:54:28;;;;;;;4.13;2.50;;;;;;;;;;5040228;28;20055;-52
2021/12/10 08:56:55;;;;;;;4.88;3.90;;;;;;;;;;5041838;28;20435;-54
2021/12/10 08:59:23;;;;;;;9.77;3.40;;;;;;;;;;5044562;28;20029;-53
2021/12/10 09:01:50;;;;;;;5.60;4.03;;;;;;;;;;5055395;28;20032;-53
2021/12/10 09:04:16;;;;;;;3.77;3.37;;;;;;;;;;5049529;28;20467;-51
2021/12/10 09:06:44;;;;;;;6.60;4.03;;;;;;;;;;5041381;28;20025;-49
2021/12/10 09:09:11;;;;;;;7.23;3.17;;;;;;;;;;5034055;28;20104;-50
2021/12/10 09:11:38;;;;;;;3.77;3.23;;;;;;;;;;5045272;28;20116;-49
2021/12/10 09:14:07;;;;;;;4.43;2.87;;;;;;;;;;5046493;28;20032;-48
2021/12/10 09:16:35;;;;;;;6.73;3.20;;;;;;;;;;5053655;28;20025;-49
2021/12/10 09:19:04;;;;;;;5.30;3.80;;;;;;;;;;5049233;28;20026;-52
2021/12/10 09:21:31;;;;;;;3.93;2.47;;;;;;;;;;5039888;28;20033;-50
2021/12/10 09:24:03;;;;;;;3.43;2.00;;;;;;;;;;5043693;28;20055;-48
2021/12/10 09:26:30;;;;;;;6.60;3.30;;;;;;;;;;5031356;28;20073;-51
2021/12/10 09:28:57;;;;;;;3.77;2.90;;;;;;;;;;5050914;28;20021;-50
2021/12/10 09:31:24;;;;;;;5.20;2.77;;;;;;;;;;5055910;28;20055;-52
2021/12/10 09:33:52;;;;;;;3.17;2.03;;;;;;;;;;5039913;28;20051;-53
2021/12/10 09:36:18;;;;;;;4.50;2.67;;;;;;;;;;5050100;28;20039;-48
2021/12/10 09:38:44;;;;;;;5.33;3.53;;;;;;;;;;5047674;28;20056;-49
2021/12/10 09:41:11;;;;;;;3.20;1.93;;;;;;;;;;5042662;28;20164;-49
2021/12/10 09:43:37;;;;;;;3.40;3.03;;;;;;;;;;5042341;28;20082;-50
2021/12/10 09:46:04;;;;;;;3.60;2.57;;;;;;;;;;5052902;28;20035;-49
2021/12/10 09:48:30;;;;;;;11.43;3.57;;;;;;;;;;5046084;28;20079;-49
2021/12/10 09:51:19;;;;;;;5.20;3.20;;;;;;;;;;5059770;28;20047;-50
2021/12/10 09:53:48;;;;;;;6.97;2.67;;;;;;;;;;5054970;28;20466;-48
2021/12/10 09:56:15;;;;;;;7.07;3.70;;;;;;;;;;5059670;28;20053;-49
2021/12/10 09:58:41;;;;;;;8.27;2.97;;;;;;;;;;5050704;28;20039;-48
2021/12/10 10:01:13;;;;;;;3.60;2.50;;;;;;;;;;5055104;28;20096;-49
2021/12/10 10:03:41;;;;;;;4.70;2.50;;;;;;;;;;5044663;28;20048;-50
2021/12/10 10:06:07;;;;;;;6.20;2.30;;;;;;;;;;5039344;28;20036;-49
2021/12/10 10:08:35;;;;;;;14.10;3.17;;;;;;;;;;5045625;28;20033;-52
2021/12/10 10:11:07;;;;;;;4.00;2.57;;;;;;;;;;5037503;28;20478;-49
2021/12/10 10:13:36;;;;;;;3.70;2.20;;;;;;;;;;5046478;28;20513;-50
2021/12/10 10:16:03;;;;;;;5.03;2.87;;;;;;;;;;5041621;28;20056;-52
2021/12/10 10:18:30;;;;;;;3.30;2.43;;;;;;;;;;5041602;28;20028;-54
2021/12/10 10:20:59;;;;;;;3.80;2.57;;;;;;;;;;5046815;28;20471;-51
2021/12/10 10:23:25;;;;;;;7.03;2.57;;;;;;;;;;5048258;28;20021;-53
2021/12/10 10:25:53;;;;;;;2.37;1.37;;;;;;;;;;5033527;28;20065;-49
2021/12/10 10:28:19;;;;;;;4.17;2.07;;;;;;;;;;5037518;28;20030;-49
2021/12/10 10:30:53;;;;;;;2.63;1.80;;;;;;;;;;5040606;28;20040;-50
2021/12/10 10:33:19;;;;;;;5.43;1.37;;;;;;;;;;5036694;28;20037;-53
2021/12/10 10:35:47;;;;;;;1.43;1.03;;;;;;;;;;5041786;28;20041;-53
2021/12/10 10:38:16;;;;;;;3.07;1.43;;;;;;;;;;5031201;28;20033;-54
2021/12/10 10:40:45;;;;;;;4.93;1.47;;;;;;;;;;5031129;28;20482;-55
2021/12/10 10:43:11;;;;;;;4.20;2.20;;;;;;;;;;5051727;28;20102;-52
2021/12/10 10:45:42;;;;;;;2.77;1.37;;;;;;;;;;5051981;28;20029;-52
2021/12/10 10:48:08;;;;;;;4.63;1.27;;;;;;;;;;5048674;28;20368;-53
2021/12/10 10:50:36;;;;;;;1.97;0.97;;;;;;;;;;5051918;28;20029;-51
2021/12/10 10:53:08;;;;;;;1.23;0.67;;;;;;;;;;5051857;28;20053;-53
2021/12/10 10:55:36;;;;;;;2.53;1.10;;;;;;;;;;5049876;28;20068;-50
2021/12/10 10:58:05;;;;;;;3.07;1.40;;;;;;;;;;5031263;28;20041;-53
2021/12/10 11:00:43;;;;;;;2.23;1.60;;;;;;;;;;5031978;28;20025;-49
2021/12/10 11:03:12;;;;;;;1.63;1.13;;;;;;;;;;5035079;28;20418;-54
2021/12/10 11:05:52;;;;;;;2.43;1.07;;;;;;;;;;5071538;28;20411;-49
2021/12/10 11:08:29;;;;;;;1.85;1.08;;;;;;;;;;5071292;28;20032;-52
2021/12/10 11:10:58;;;;;;;1.70;1.10;;;;;;;;;;5057291;28;20056;-51
2021/12/10 11:13:26;;;;;;;2.83;0.77;;;;;;;;;;5051183;28;20112;-53
2021/12/10 11:15:55;;;;;;;1.30;0.87;;;;;;;;;;5051461;28;20079;-50
2021/12/10 11:18:21;;;;;;;1.50;0.63;;;;;;;;;;5050622;28;20025;-53
2021/12/10 11:20:47;;;;;;;1.73;0.90;;;;;;;;;;5051761;28;20029;-55
2021/12/10 11:23:15;;;;;;;2.17;1.00;;;;;;;;;;5053020;28;20083;-48
2021/12/10 11:25:48;;;;;;;1.07;0.57;;;;;;;;;;5035627;28;20372;-55
2021/12/10 11:28:16;;;;;;;1.33;0.83;;;;;;;;;;5034466;28;20041;-52
2021/12/10 11:30:45;;;;;;;3.27;0.77;;;;;;;;;;5035057;28;20033;-52
2021/12/10 11:33:13;;;;;;;2.50;1.10;;;;;;;;;;5034999;28;20033;-48
2021/12/10 11:35:42;;;;;;;1.27;0.77;;;;;;;;;;5035104;28;20045;-51
2021/12/10 11:38:10;;;;;;;1.07;0.50;;;;;;;;;;5034212;28;20405;-50
2021/12/10 11:40:41;;;;;;;3.97;1.30;;;;;;;;;;5036088;28;20034;-53
2021/12/10 11:46:15;;;;;;;0.87;0.47;;;;;;;;;;5034776;28;20036;-51
2021/12/10 11:48:43;;;;;;;1.47;0.50;;;;;;;;;;5034011;28;20065;-55
2021/12/10 11:51:12;;;;;;;1.77;0.60;;;;;;;;;;5034737;28;20030;-52
2021/12/10 11:53:38;;;;;;;1.20;0.90;;;;;;;;;;5037321;28;20475;-53
2021/12/10 11:56:10;;;;;;;2.63;0.57;;;;;;;;;;5054041;28;20170;-54
2021/12/10 11:58:36;;;;;;;1.50;0.90;;;;;;;;;;5053756;28;20483;-52
2021/12/10 12:01:02;;;;;;;1.50;0.83;;;;;;;;;;5054264;28;20094;-53
2021/12/10 12:03:35;;;;;;;1.37;0.70;;;;;;;;;;5052188;28;20024;-51
2021/12/10 12:06:02;;;;;;;4.67;0.87;;;;;;;;;;5074361;28;20024;-49
2021/12/10 12:08:28;;;;;;;1.57;1.10;;;;;;;;;;5073379;28;20021;-49
2021/12/10 12:10:58;;;;;;;3.27;1.20;;;;;;;;;;5074513;28;20036;-55
2021/12/10 12:13:36;;;;;;;1.85;1.38;;;;;;;;;;5073734;28;20466;-54
2021/12/10 12:16:14;;;;;;;1.47;0.87;;;;;;;;;;5039295;28;20038;-52
2021/12/10 12:18:41;;;;;;;3.10;1.57;;;;;;;;;;5040774;28;20025;-52
2021/12/10 12:27:12;;;;;;;1.77;1.23;;;;;;;;;;5036121;28;20083;-53
2021/12/10 12:29:44;;;;;;;1.27;0.93;;;;;;;;;;5045910;28;20472;-51
2021/12/10 12:32:21;;;;;;;2.50;1.40;;;;;;;;;;5043795;28;20029;-50
2021/12/10 12:34:48;;;;;;;2.20;1.27;;;;;;;;;;5034412;28;20128;-52
2021/12/10 12:37:15;;;;;;;1.83;1.10;;;;;;;;;;5034162;28;20022;-54
2021/12/10 12:39:43;;;;;;;2.20;1.40;;;;;;;;;;5039199;28;20036;-53
2021/12/10 12:42:18;;;;;;;3.47;2.07;;;;;;;;;;5050721;28;20036;-52
2021/12/10 12:44:45;;;;;;;5.37;1.60;;;;;;;;;;5038254;28;20033;-51
2021/12/10 12:47:12;;;;;;;2.27;1.80;;;;;;;;;;5043957;28;20025;-51
2021/12/10 12:49:38;;;;;;;2.87;1.70;;;;;;;;;;5051319;28;20439;-53
2021/12/10 12:52:06;;;;;;;2.20;1.30;;;;;;;;;;5048985;28;20112;-50
2021/12/10 12:54:33;;;;;;;2.17;1.43;;;;;;;;;;5032156;28;20037;-55
2021/12/10 12:56:59;;;;;;;2.20;1.30;;;;;;;;;;5041409;28;20030;-52
2021/12/10 12:59:25;;;;;;;2.70;1.37;;;;;;;;;;5045852;28;20029;-52
2021/12/10 13:01:55;;;;;;;2.33;1.17;;;;;;;;;;5040678;28;20501;-53
2021/12/10 13:04:28;;;;;;;1.30;0.80;;;;;;;;;;5042427;28;20033;-49
2021/12/10 13:06:55;;;;;;;7.30;2.37;;;;;;;;;;5037709;28;20044;-56
2021/12/10 13:09:21;;;;;;;2.20;1.37;;;;;;;;;;5038509;28;20022;-53
2021/12/10 13:12:02;;;;;;;2.50;0.97;;;;;;;;;;5040401;28;20029;-51
2021/12/10 13:14:41;;;;;;;4.80;1.80;;;;;;;;;;5032105;28;20039;-52
2021/12/10 13:17:15;;;;;;;1.90;1.00;;;;;;;;;;5040257;28;20040;-51
2021/12/10 13:19:41;;;;;;;2.70;1.33;;;;;;;;;;5046057;28;20094;-52
2021/12/10 13:22:09;;;;;;;3.13;1.20;;;;;;;;;;5032505;28;20026;-50
2021/12/10 13:24:37;;;;;;;2.53;1.40;;;;;;;;;;5037309;28;20037;-53
2021/12/10 13:27:04;;;;;;;3.07;1.73;;;;;;;;;;5039270;28;20399;-50
2021/12/10 13:29:30;;;;;;;3.17;1.70;;;;;;;;;;5034894;28;20511;-52
2021/12/10 13:31:56;;;;;;;2.07;1.47;;;;;;;;;;5039076;28;20471;-49
2021/12/10 13:34:23;;;;;;;4.67;1.67;;;;;;;;;;5036213;28;20030;-51
2021/12/10 13:36:49;;;;;;;5.87;1.83;;;;;;;;;;5043770;28;20041;-49
2021/12/10 13:39:15;;;;;;;6.07;2.20;;;;;;;;;;5038660;28;20025;-53
2021/12/10 13:41:43;;;;;;;3.27;2.17;;;;;;;;;;5043479;28;20368;-53
2021/12/10 13:44:25;;;;;;;2.37;1.50;;;;;;;;;;5031954;28;20061;-51
2021/12/10 13:46:54;;;;;;;1.70;1.13;;;;;;;;;;5040250;28;20469;-49
2021/12/10 13:49:20;;;;;;;3.27;1.93;;;;;;;;;;5036874;28;20029;-50
2021/12/10 13:51:48;;;;;;;3.17;2.00;;;;;;;;;;5032767;28;20033;-52
2021/12/10 13:54:22;;;;;;;3.67;1.90;;;;;;;;;;5032752;28;20029;-53
2021/12/10 13:56:51;;;;;;;2.60;1.63;;;;;;;;;;5032327;28;20037;-51
2021/12/10 13:59:21;;;;;;;2.50;1.67;;;;;;;;;;5042331;28;20033;-55
2021/12/10 14:01:48;;;;;;;4.30;2.00;;;;;;;;;;5048549;28;20075;-54
2021/12/10 14:04:16;;;;;;;2.80;1.40;;;;;;;;;;5046932;28;20029;-52
2021/12/10 14:06:44;;;;;;;2.93;1.93;;;;;;;;;;5039140;28;20040;-54
2021/12/10 14:09:14;;;;;;;5.03;2.63;;;;;;;;;;5035069;28;20387;-53
2021/12/10 14:11:52;;;;;;;2.97;2.10;;;;;;;;;;5042045;28;20402;-56
2021/12/10 14:14:18;;;;;;;7.33;1.80;;;;;;;;;;5034441;28;20037;-55
2021/12/10 14:16:56;;;;;;;3.63;1.93;;;;;;;;;;5031720;28;20211;-56
2021/12/10 14:19:34;;;;;;;4.00;2.10;;;;;;;;;;5040719;28;20021;-55
2021/12/10 14:22:00;;;;;;;2.70;1.77;;;;;;;;;;5035664;28;20080;-56
2021/12/10 14:24:34;;;;;;;6.70;3.33;;;;;;;;;;5040465;28;20215;-52
2021/12/10 14:27:11;;;;;;;3.23;2.33;;;;;;;;;;5043734;28;20040;-54
2021/12/10 14:29:38;;;;;;;6.13;2.70;;;;;;;;;;5042930;28;20036;-52
2021/12/10 14:32:18;;;;;;;4.83;1.97;;;;;;;;;;5038486;28;20521;-54
2021/12/10 14:34:59;;;;;;;4.78;2.03;;;;;;;;;;5035887;28;20483;-53
2021/12/10 14:37:25;;;;;;;6.20;3.10;;;;;;;;;;5040379;28;20420;-52
2021/12/10 14:40:03;;;;;;;2.90;2.20;;;;;;;;;;5030464;28;20049;-52
2021/12/10 14:42:29;;;;;;;4.23;1.87;;;;;;;;;;5040915;28;20024;-51
2021/12/10 14:45:07;;;;;;;3.80;2.57;;;;;;;;;;5035529;28;20025;-52
2021/12/10 14:47:33;;;;;;;2.57;2.00;;;;;;;;;;5040637;28;20068;-54
2021/12/10 14:50:02;;;;;;;3.10;2.23;;;;;;;;;;5030488;28;20109;-51
2021/12/10 14:52:36;;;;;;;3.67;2.37;;;;;;;;;;5032020;28;20052;-50
2021/12/10 14:55:13;;;;;;;5.70;1.93;;;;;;;;;;5032634;28;20499;-52
2021/12/10 14:57:43;;;;;;;3.73;2.57;;;;;;;;;;5042673;28;20383;-49
2021/12/10 15:00:50;;;;;;;3.85;2.83;;;;;;;;;;5038258;28;20032;-56
2021/12/10 15:03:24;;;;;;;4.17;2.77;;;;;;;;;;5057578;28;20474;-54
2021/12/10 15:05:59;;;;;;;2.57;1.93;;;;;;;;;;5075276;28;20029;-55